sensor_id;sensor_type;location;lat;lon;timestamp;temperature;humidity
15364;DHT22;7781;49.690;6.472;2022-12-08T00:02:50;3.50;99.90
15364;DHT22;7781;49.690;6.472;2022-12-08T00:05:19;3.50;99.90
15364;DHT22;7781;49.690;6.472;2022-12-08T00:08:54;3.50;99.90
15364;DHT22;7781;49.690;6.472;2022-12-08T00:16:17;3.50;99.90
15364;DHT22;7781;49.690;6.472;2022-12-08T00:18:47;3.50;99.90
15364;DHT22;7781;49.690;6.472;2022-12-08T00:21:16;3.50;99.90
15364;DHT22;7781;49.690;6.472;2022-12-08T00:23:45;3.50;99.90
15364;DHT22;7781;49.690;6.472;2022-12-08T00:26:15;3.50;99.90
15364;DHT22;7781;49.690;6.472;2022-12-08T00:28:44;3.50;99.90
15364;DHT22;7781;49.690;6.472;2022-12-08T00:31:13;3.40;99.90
15364;DHT22;7781;49.690;6.472;2022-12-08T00:33:41;3.40;99.90
15364;DHT22;7781;49.690;6.472;2022-12-08T00:36:13;3.40;99.90
15364;DHT22;7781;49.690;6.472;2022-12-08T00:38:42;3.40;99.90
15364;DHT22;7781;49.690;6.472;2022-12-08T00:41:14;3.40;99.90
15364;DHT22;7781;49.690;6.472;2022-12-08T00:43:44;3.40;99.90
15364;DHT22;7781;49.690;6.472;2022-12-08T00:46:13;3.40;99.90
15364;DHT22;7781;49.690;6.472;2022-12-08T00:48:42;3.40;99.90
15364;DHT22;7781;49.690;6.472;2022-12-08T00:51:13;3.40;99.90
15364;DHT22;7781;49.690;6.472;2022-12-08T00:53:41;3.40;99.90
15364;DHT22;7781;49.690;6.472;2022-12-08T00:56:10;3.40;99.90
15364;DHT22;7781;49.690;6.472;2022-12-08T00:58:39;3.40;99.90
15364;DHT22;7781;49.690;6.472;2022-12-08T01:01:09;3.40;99.90
15364;DHT22;7781;49.690;6.472;2022-12-08T01:03:38;3.40;99.90
15364;DHT22;7781;49.690;6.472;2022-12-08T01:06:08;3.40;99.90
15364;DHT22;7781;49.690;6.472;2022-12-08T01:08:40;3.40;99.90
15364;DHT22;7781;49.690;6.472;2022-12-08T01:11:12;3.40;99.90
15364;DHT22;7781;49.690;6.472;2022-12-08T01:13:40;3.40;99.90
15364;DHT22;7781;49.690;6.472;2022-12-08T01:16:11;3.40;99.90
15364;DHT22;7781;49.690;6.472;2022-12-08T01:18:47;3.40;99.90
15364;DHT22;7781;49.690;6.472;2022-12-08T01:21:17;3.40;99.90
15364;DHT22;7781;49.690;6.472;2022-12-08T01:23:47;3.40;99.90
15364;DHT22;7781;49.690;6.472;2022-12-08T01:26:16;3.40;99.90
15364;DHT22;7781;49.690;6.472;2022-12-08T01:28:46;3.40;99.90
15364;DHT22;7781;49.690;6.472;2022-12-08T01:31:18;3.40;99.90
15364;DHT22;7781;49.690;6.472;2022-12-08T01:33:49;3.40;99.90
15364;DHT22;7781;49.690;6.472;2022-12-08T01:36:22;3.50;99.90
15364;DHT22;7781;49.690;6.472;2022-12-08T01:38:53;3.50;99.90
15364;DHT22;7781;49.690;6.472;2022-12-08T01:41:24;3.50;99.90
15364;DHT22;7781;49.690;6.472;2022-12-08T01:43:59;3.50;99.90
15364;DHT22;7781;49.690;6.472;2022-12-08T01:46:29;3.40;99.90
15364;DHT22;7781;49.690;6.472;2022-12-08T01:49:02;3.40;99.90
15364;DHT22;7781;49.690;6.472;2022-12-08T01:51:37;3.40;99.90
15364;DHT22;7781;49.690;6.472;2022-12-08T01:54:11;3.40;99.90
15364;DHT22;7781;49.690;6.472;2022-12-08T01:56:45;3.40;99.90
15364;DHT22;7781;49.690;6.472;2022-12-08T01:59:16;3.40;99.90
15364;DHT22;7781;49.690;6.472;2022-12-08T02:01:50;3.40;99.90
15364;DHT22;7781;49.690;6.472;2022-12-08T02:04:20;3.40;99.90
15364;DHT22;7781;49.690;6.472;2022-12-08T02:06:50;3.40;99.90
15364;DHT22;7781;49.690;6.472;2022-12-08T02:09:21;3.40;99.90
15364;DHT22;7781;49.690;6.472;2022-12-08T02:11:55;3.50;99.90
15364;DHT22;7781;49.690;6.472;2022-12-08T02:14:24;3.50;99.90
15364;DHT22;7781;49.690;6.472;2022-12-08T02:16:59;3.50;99.90
15364;DHT22;7781;49.690;6.472;2022-12-08T02:22:36;3.50;99.90
15364;DHT22;7781;49.690;6.472;2022-12-08T02:25:13;3.50;99.90
15364;DHT22;7781;49.690;6.472;2022-12-08T02:27:47;3.50;99.90
15364;DHT22;7781;49.690;6.472;2022-12-08T02:30:23;3.50;99.90
15364;DHT22;7781;49.690;6.472;2022-12-08T02:37:36;3.50;99.90
15364;DHT22;7781;49.690;6.472;2022-12-08T02:40:41;3.50;99.90
15364;DHT22;7781;49.690;6.472;2022-12-08T02:43:34;3.50;99.90
15364;DHT22;7781;49.690;6.472;2022-12-08T02:46:10;3.50;99.90
15364;DHT22;7781;49.690;6.472;2022-12-08T02:48:41;3.50;99.90
15364;DHT22;7781;49.690;6.472;2022-12-08T02:51:09;3.50;99.90
15364;DHT22;7781;49.690;6.472;2022-12-08T02:53:41;3.50;99.90
15364;DHT22;7781;49.690;6.472;2022-12-08T02:56:17;3.50;99.90
15364;DHT22;7781;49.690;6.472;2022-12-08T02:59:08;3.50;99.90
15364;DHT22;7781;49.690;6.472;2022-12-08T03:02:22;3.50;99.90
15364;DHT22;7781;49.690;6.472;2022-12-08T03:05:00;3.50;99.90
15364;DHT22;7781;49.690;6.472;2022-12-08T03:07:43;3.40;99.90
15364;DHT22;7781;49.690;6.472;2022-12-08T03:18:20;3.30;99.90
15364;DHT22;7781;49.690;6.472;2022-12-08T03:48:15;3.20;99.90
15364;DHT22;7781;49.690;6.472;2022-12-08T03:50:55;3.20;99.90
15364;DHT22;7781;49.690;6.472;2022-12-08T03:56:37;3.20;99.90
15364;DHT22;7781;49.690;6.472;2022-12-08T04:07:09;3.20;99.90
15364;DHT22;7781;49.690;6.472;2022-12-08T04:09:38;3.20;99.90
15364;DHT22;7781;49.690;6.472;2022-12-08T04:12:08;3.20;99.90
15364;DHT22;7781;49.690;6.472;2022-12-08T04:14:38;3.30;99.90
15364;DHT22;7781;49.690;6.472;2022-12-08T04:17:07;3.20;99.90
15364;DHT22;7781;49.690;6.472;2022-12-08T04:19:36;3.30;99.90
15364;DHT22;7781;49.690;6.472;2022-12-08T04:22:08;3.30;99.90
15364;DHT22;7781;49.690;6.472;2022-12-08T04:24:37;3.30;99.90
15364;DHT22;7781;49.690;6.472;2022-12-08T04:27:07;3.30;99.90
15364;DHT22;7781;49.690;6.472;2022-12-08T04:29:37;3.30;99.90
15364;DHT22;7781;49.690;6.472;2022-12-08T04:32:07;3.30;99.90
15364;DHT22;7781;49.690;6.472;2022-12-08T04:34:36;3.20;99.90
15364;DHT22;7781;49.690;6.472;2022-12-08T04:37:09;3.20;99.90
15364;DHT22;7781;49.690;6.472;2022-12-08T04:39:37;3.20;99.90
15364;DHT22;7781;49.690;6.472;2022-12-08T04:42:06;3.20;99.90
15364;DHT22;7781;49.690;6.472;2022-12-08T04:44:34;3.20;99.90
15364;DHT22;7781;49.690;6.472;2022-12-08T04:47:03;3.20;99.90
15364;DHT22;7781;49.690;6.472;2022-12-08T04:49:37;3.20;99.90
15364;DHT22;7781;49.690;6.472;2022-12-08T04:52:09;3.20;99.90
15364;DHT22;7781;49.690;6.472;2022-12-08T04:54:37;3.20;99.90
15364;DHT22;7781;49.690;6.472;2022-12-08T04:57:07;3.20;99.90
15364;DHT22;7781;49.690;6.472;2022-12-08T04:59:36;3.20;99.90
15364;DHT22;7781;49.690;6.472;2022-12-08T05:02:05;3.20;99.90
15364;DHT22;7781;49.690;6.472;2022-12-08T05:04:35;3.20;99.90
15364;DHT22;7781;49.690;6.472;2022-12-08T05:07:04;3.20;99.90
15364;DHT22;7781;49.690;6.472;2022-12-08T05:09:35;3.20;99.90
15364;DHT22;7781;49.690;6.472;2022-12-08T05:12:04;3.20;99.90
15364;DHT22;7781;49.690;6.472;2022-12-08T05:14:32;3.20;99.90
15364;DHT22;7781;49.690;6.472;2022-12-08T05:25:41;3.20;99.90
15364;DHT22;7781;49.690;6.472;2022-12-08T05:28:10;3.20;99.90
15364;DHT22;7781;49.690;6.472;2022-12-08T05:31:02;3.20;99.90
15364;DHT22;7781;49.690;6.472;2022-12-08T05:33:31;3.20;99.90
15364;DHT22;7781;49.690;6.472;2022-12-08T05:36:02;3.20;99.90
15364;DHT22;7781;49.690;6.472;2022-12-08T05:38:31;3.20;99.90
15364;DHT22;7781;49.690;6.472;2022-12-08T05:41:01;3.20;99.90
15364;DHT22;7781;49.690;6.472;2022-12-08T05:43:32;3.20;99.90
15364;DHT22;7781;49.690;6.472;2022-12-08T05:46:01;3.30;99.90
15364;DHT22;7781;49.690;6.472;2022-12-08T05:48:31;3.20;99.90
15364;DHT22;7781;49.690;6.472;2022-12-08T05:51:00;3.30;99.90
15364;DHT22;7781;49.690;6.472;2022-12-08T05:53:31;3.20;99.90
15364;DHT22;7781;49.690;6.472;2022-12-08T05:56:03;3.20;99.90
15364;DHT22;7781;49.690;6.472;2022-12-08T05:58:31;3.20;99.90
15364;DHT22;7781;49.690;6.472;2022-12-08T06:01:00;3.20;99.90
15364;DHT22;7781;49.690;6.472;2022-12-08T06:03:32;3.20;99.90
15364;DHT22;7781;49.690;6.472;2022-12-08T06:06:00;3.20;99.90
15364;DHT22;7781;49.690;6.472;2022-12-08T06:08:29;3.20;99.90
15364;DHT22;7781;49.690;6.472;2022-12-08T06:10:59;3.10;99.90
15364;DHT22;7781;49.690;6.472;2022-12-08T06:13:30;3.10;99.90
15364;DHT22;7781;49.690;6.472;2022-12-08T06:16:03;3.10;99.90
15364;DHT22;7781;49.690;6.472;2022-12-08T06:18:32;3.10;99.90
15364;DHT22;7781;49.690;6.472;2022-12-08T06:21:02;3.10;99.90
15364;DHT22;7781;49.690;6.472;2022-12-08T06:23:32;3.10;99.90
15364;DHT22;7781;49.690;6.472;2022-12-08T06:26:01;3.10;99.90
15364;DHT22;7781;49.690;6.472;2022-12-08T06:28:32;3.00;99.90
15364;DHT22;7781;49.690;6.472;2022-12-08T06:31:07;3.10;99.90
15364;DHT22;7781;49.690;6.472;2022-12-08T06:33:38;3.00;99.90
15364;DHT22;7781;49.690;6.472;2022-12-08T06:36:07;3.10;99.90
15364;DHT22;7781;49.690;6.472;2022-12-08T06:38:35;3.00;99.90
15364;DHT22;7781;49.690;6.472;2022-12-08T06:41:09;3.00;99.90
15364;DHT22;7781;49.690;6.472;2022-12-08T06:43:43;3.10;99.90
15364;DHT22;7781;49.690;6.472;2022-12-08T06:46:13;3.10;99.90
15364;DHT22;7781;49.690;6.472;2022-12-08T06:48:43;3.10;99.90
15364;DHT22;7781;49.690;6.472;2022-12-08T06:51:20;3.10;99.90
15364;DHT22;7781;49.690;6.472;2022-12-08T06:53:49;3.10;99.90
15364;DHT22;7781;49.690;6.472;2022-12-08T06:56:18;3.10;99.90
15364;DHT22;7781;49.690;6.472;2022-12-08T06:58:55;3.10;99.90
15364;DHT22;7781;49.690;6.472;2022-12-08T07:01:24;3.00;99.90
15364;DHT22;7781;49.690;6.472;2022-12-08T07:03:55;3.00;99.90
15364;DHT22;7781;49.690;6.472;2022-12-08T07:06:24;3.00;99.90
15364;DHT22;7781;49.690;6.472;2022-12-08T07:08:57;3.00;99.90
15364;DHT22;7781;49.690;6.472;2022-12-08T07:11:26;3.00;99.90
15364;DHT22;7781;49.690;6.472;2022-12-08T07:13:57;3.00;99.90
15364;DHT22;7781;49.690;6.472;2022-12-08T07:16:26;3.00;99.90
15364;DHT22;7781;49.690;6.472;2022-12-08T07:18:55;3.00;99.90
15364;DHT22;7781;49.690;6.472;2022-12-08T07:21:24;3.00;99.90
15364;DHT22;7781;49.690;6.472;2022-12-08T07:23:53;3.00;99.90
15364;DHT22;7781;49.690;6.472;2022-12-08T07:26:24;3.00;99.90
15364;DHT22;7781;49.690;6.472;2022-12-08T07:28:56;3.00;99.90
15364;DHT22;7781;49.690;6.472;2022-12-08T07:31:25;3.00;99.90
15364;DHT22;7781;49.690;6.472;2022-12-08T07:33:54;3.00;99.90
15364;DHT22;7781;49.690;6.472;2022-12-08T07:36:24;3.00;99.90
15364;DHT22;7781;49.690;6.472;2022-12-08T07:38:55;3.00;99.90
15364;DHT22;7781;49.690;6.472;2022-12-08T07:41:24;3.00;99.90
15364;DHT22;7781;49.690;6.472;2022-12-08T07:43:56;3.00;99.90
15364;DHT22;7781;49.690;6.472;2022-12-08T07:46:26;2.90;99.90
15364;DHT22;7781;49.690;6.472;2022-12-08T07:48:56;3.00;99.90
15364;DHT22;7781;49.690;6.472;2022-12-08T07:51:28;3.00;99.90
15364;DHT22;7781;49.690;6.472;2022-12-08T07:54:02;2.90;99.90
15364;DHT22;7781;49.690;6.472;2022-12-08T07:56:30;3.00;99.90
15364;DHT22;7781;49.690;6.472;2022-12-08T07:59:02;3.00;99.90
15364;DHT22;7781;49.690;6.472;2022-12-08T08:01:32;3.00;99.90
15364;DHT22;7781;49.690;6.472;2022-12-08T08:04:04;3.00;99.90
15364;DHT22;7781;49.690;6.472;2022-12-08T08:06:34;3.00;99.90
15364;DHT22;7781;49.690;6.472;2022-12-08T08:09:04;3.00;99.90
15364;DHT22;7781;49.690;6.472;2022-12-08T08:11:36;3.00;99.90
15364;DHT22;7781;49.690;6.472;2022-12-08T08:14:06;3.00;99.90
15364;DHT22;7781;49.690;6.472;2022-12-08T08:16:35;3.00;99.90
15364;DHT22;7781;49.690;6.472;2022-12-08T08:19:06;2.90;99.90
15364;DHT22;7781;49.690;6.472;2022-12-08T08:21:43;2.90;99.90
15364;DHT22;7781;49.690;6.472;2022-12-08T08:24:12;2.90;99.90
15364;DHT22;7781;49.690;6.472;2022-12-08T08:26:41;3.00;99.90
15364;DHT22;7781;49.690;6.472;2022-12-08T08:29:14;3.00;99.90
15364;DHT22;7781;49.690;6.472;2022-12-08T08:31:42;3.00;99.90
15364;DHT22;7781;49.690;6.472;2022-12-08T08:34:11;3.00;99.90
15364;DHT22;7781;49.690;6.472;2022-12-08T08:36:39;3.00;99.90
15364;DHT22;7781;49.690;6.472;2022-12-08T08:39:12;3.00;99.90
15364;DHT22;7781;49.690;6.472;2022-12-08T08:41:42;3.00;99.90
15364;DHT22;7781;49.690;6.472;2022-12-08T08:44:14;3.00;99.90
15364;DHT22;7781;49.690;6.472;2022-12-08T08:46:43;2.90;99.90
15364;DHT22;7781;49.690;6.472;2022-12-08T08:49:14;2.90;99.90
15364;DHT22;7781;49.690;6.472;2022-12-08T08:51:43;2.90;99.90
15364;DHT22;7781;49.690;6.472;2022-12-08T08:54:15;2.90;99.90
15364;DHT22;7781;49.690;6.472;2022-12-08T08:56:45;2.80;99.90
15364;DHT22;7781;49.690;6.472;2022-12-08T08:59:15;2.80;99.90
15364;DHT22;7781;49.690;6.472;2022-12-08T09:01:44;2.80;99.90
15364;DHT22;7781;49.690;6.472;2022-12-08T09:04:13;2.80;99.90
15364;DHT22;7781;49.690;6.472;2022-12-08T09:06:41;2.80;99.90
15364;DHT22;7781;49.690;6.472;2022-12-08T09:09:12;2.80;99.90
15364;DHT22;7781;49.690;6.472;2022-12-08T09:11:43;2.90;99.90
15364;DHT22;7781;49.690;6.472;2022-12-08T09:14:12;2.90;99.90
15364;DHT22;7781;49.690;6.472;2022-12-08T09:16:43;2.90;99.90
15364;DHT22;7781;49.690;6.472;2022-12-08T09:19:12;2.90;99.90
15364;DHT22;7781;49.690;6.472;2022-12-08T09:21:42;2.90;99.90
15364;DHT22;7781;49.690;6.472;2022-12-08T09:24:11;2.80;99.90
15364;DHT22;7781;49.690;6.472;2022-12-08T09:26:42;2.80;99.90
15364;DHT22;7781;49.690;6.472;2022-12-08T09:29:11;2.80;99.90
15364;DHT22;7781;49.690;6.472;2022-12-08T09:31:48;2.70;99.90
15364;DHT22;7781;49.690;6.472;2022-12-08T09:34:19;2.80;99.90
15364;DHT22;7781;49.690;6.472;2022-12-08T09:36:49;2.80;99.90
15364;DHT22;7781;49.690;6.472;2022-12-08T09:39:18;2.80;99.90
15364;DHT22;7781;49.690;6.472;2022-12-08T09:41:48;2.80;99.90
15364;DHT22;7781;49.690;6.472;2022-12-08T09:44:40;2.70;99.90
15364;DHT22;7781;49.690;6.472;2022-12-08T09:47:21;2.80;99.90
15364;DHT22;7781;49.690;6.472;2022-12-08T09:50:05;2.80;99.90
15364;DHT22;7781;49.690;6.472;2022-12-08T09:52:40;2.80;99.90
15364;DHT22;7781;49.690;6.472;2022-12-08T09:55:16;2.90;99.90
15364;DHT22;7781;49.690;6.472;2022-12-08T09:57:56;3.00;99.90
15364;DHT22;7781;49.690;6.472;2022-12-08T10:00:25;3.00;99.90
15364;DHT22;7781;49.690;6.472;2022-12-08T10:02:56;3.00;99.90
15364;DHT22;7781;49.690;6.472;2022-12-08T10:05:27;3.10;99.90
15364;DHT22;7781;49.690;6.472;2022-12-08T10:08:04;3.10;99.90
15364;DHT22;7781;49.690;6.472;2022-12-08T10:10:38;3.00;99.90
15364;DHT22;7781;49.690;6.472;2022-12-08T10:13:17;3.00;99.90
15364;DHT22;7781;49.690;6.472;2022-12-08T10:15:52;3.00;99.90
15364;DHT22;7781;49.690;6.472;2022-12-08T10:18:28;3.00;99.90
15364;DHT22;7781;49.690;6.472;2022-12-08T10:21:10;3.00;99.90
15364;DHT22;7781;49.690;6.472;2022-12-08T10:23:43;3.10;99.90
15364;DHT22;7781;49.690;6.472;2022-12-08T10:26:14;3.10;99.90
15364;DHT22;7781;49.690;6.472;2022-12-08T10:28:44;3.10;99.90
15364;DHT22;7781;49.690;6.472;2022-12-08T10:31:16;3.10;99.90
15364;DHT22;7781;49.690;6.472;2022-12-08T10:33:53;3.10;99.90
15364;DHT22;7781;49.690;6.472;2022-12-08T10:36:45;3.10;99.90
15364;DHT22;7781;49.690;6.472;2022-12-08T10:39:32;3.00;99.90
15364;DHT22;7781;49.690;6.472;2022-12-08T10:42:10;3.00;99.90
15364;DHT22;7781;49.690;6.472;2022-12-08T10:44:53;3.10;99.90
15364;DHT22;7781;49.690;6.472;2022-12-08T10:47:25;3.20;99.90
15364;DHT22;7781;49.690;6.472;2022-12-08T10:50:17;3.20;99.90
15364;DHT22;7781;49.690;6.472;2022-12-08T10:52:54;3.20;99.90
15364;DHT22;7781;49.690;6.472;2022-12-08T10:55:23;3.20;99.90
15364;DHT22;7781;49.690;6.472;2022-12-08T10:57:53;3.20;99.90
15364;DHT22;7781;49.690;6.472;2022-12-08T11:00:24;3.20;99.90
15364;DHT22;7781;49.690;6.472;2022-12-08T11:02:57;3.20;99.90
15364;DHT22;7781;49.690;6.472;2022-12-08T11:05:33;3.20;99.90
15364;DHT22;7781;49.690;6.472;2022-12-08T11:08:07;3.30;99.90
15364;DHT22;7781;49.690;6.472;2022-12-08T11:10:42;3.30;99.90
15364;DHT22;7781;49.690;6.472;2022-12-08T11:13:17;3.40;99.90
15364;DHT22;7781;49.690;6.472;2022-12-08T11:15:46;3.40;99.90
15364;DHT22;7781;49.690;6.472;2022-12-08T11:18:24;3.50;99.90
15364;DHT22;7781;49.690;6.472;2022-12-08T11:20:59;3.50;99.90
15364;DHT22;7781;49.690;6.472;2022-12-08T11:23:29;3.40;99.90
15364;DHT22;7781;49.690;6.472;2022-12-08T11:26:04;3.50;99.90
15364;DHT22;7781;49.690;6.472;2022-12-08T11:28:35;3.50;99.90
15364;DHT22;7781;49.690;6.472;2022-12-08T11:31:14;3.60;99.90
15364;DHT22;7781;49.690;6.472;2022-12-08T11:33:45;3.70;99.90
15364;DHT22;7781;49.690;6.472;2022-12-08T11:36:16;3.60;99.90
15364;DHT22;7781;49.690;6.472;2022-12-08T11:38:47;3.70;99.90
15364;DHT22;7781;49.690;6.472;2022-12-08T11:41:20;3.70;99.90
15364;DHT22;7781;49.690;6.472;2022-12-08T11:43:54;3.70;99.90
15364;DHT22;7781;49.690;6.472;2022-12-08T11:46:30;3.70;99.90
15364;DHT22;7781;49.690;6.472;2022-12-08T11:49:02;3.70;99.90
15364;DHT22;7781;49.690;6.472;2022-12-08T11:51:37;3.70;99.90
15364;DHT22;7781;49.690;6.472;2022-12-08T11:54:17;3.70;99.90
15364;DHT22;7781;49.690;6.472;2022-12-08T11:56:52;3.80;99.90
15364;DHT22;7781;49.690;6.472;2022-12-08T11:59:25;3.80;99.90
15364;DHT22;7781;49.690;6.472;2022-12-08T12:01:56;3.80;99.90
15364;DHT22;7781;49.690;6.472;2022-12-08T12:04:30;3.80;99.90
15364;DHT22;7781;49.690;6.472;2022-12-08T12:07:37;3.70;99.90
15364;DHT22;7781;49.690;6.472;2022-12-08T12:10:30;3.80;99.90
15364;DHT22;7781;49.690;6.472;2022-12-08T12:13:11;3.70;99.90
15364;DHT22;7781;49.690;6.472;2022-12-08T12:18:41;3.80;99.90
15364;DHT22;7781;49.690;6.472;2022-12-08T12:21:16;3.80;99.90
15364;DHT22;7781;49.690;6.472;2022-12-08T12:23:52;3.80;99.90
15364;DHT22;7781;49.690;6.472;2022-12-08T12:26:22;3.80;99.90
15364;DHT22;7781;49.690;6.472;2022-12-08T12:28:56;3.70;99.90
15364;DHT22;7781;49.690;6.472;2022-12-08T12:31:27;3.80;99.90
15364;DHT22;7781;49.690;6.472;2022-12-08T12:34:05;3.70;99.90
15364;DHT22;7781;49.690;6.472;2022-12-08T12:36:47;3.70;99.90
15364;DHT22;7781;49.690;6.472;2022-12-08T12:39:22;3.70;99.90
15364;DHT22;7781;49.690;6.472;2022-12-08T12:41:54;3.80;99.90
15364;DHT22;7781;49.690;6.472;2022-12-08T12:44:39;3.80;99.90
15364;DHT22;7781;49.690;6.472;2022-12-08T12:47:12;3.80;99.90
15364;DHT22;7781;49.690;6.472;2022-12-08T12:52:46;3.90;99.90
15364;DHT22;7781;49.690;6.472;2022-12-08T12:58:36;3.90;99.90
15364;DHT22;7781;49.690;6.472;2022-12-08T13:04:33;3.90;99.90
15364;DHT22;7781;49.690;6.472;2022-12-08T13:07:04;3.90;99.90
15364;DHT22;7781;49.690;6.472;2022-12-08T13:09:37;3.80;99.90
15364;DHT22;7781;49.690;6.472;2022-12-08T13:12:21;3.80;99.90
15364;DHT22;7781;49.690;6.472;2022-12-08T13:15:01;3.90;99.90
15364;DHT22;7781;49.690;6.472;2022-12-08T13:17:32;3.90;99.90
15364;DHT22;7781;49.690;6.472;2022-12-08T13:20:06;3.90;99.90
15364;DHT22;7781;49.690;6.472;2022-12-08T13:23:01;3.90;99.90
15364;DHT22;7781;49.690;6.472;2022-12-08T13:25:50;3.80;99.90
15364;DHT22;7781;49.690;6.472;2022-12-08T13:31:37;3.80;99.90
15364;DHT22;7781;49.690;6.472;2022-12-08T13:34:19;3.70;99.90
15364;DHT22;7781;49.690;6.472;2022-12-08T13:36:55;3.70;99.90
15364;DHT22;7781;49.690;6.472;2022-12-08T13:39:29;3.70;99.90
15364;DHT22;7781;49.690;6.472;2022-12-08T13:42:20;3.60;99.90
15364;DHT22;7781;49.690;6.472;2022-12-08T13:44:54;3.70;99.90
15364;DHT22;7781;49.690;6.472;2022-12-08T13:47:50;3.60;99.90
15364;DHT22;7781;49.690;6.472;2022-12-08T13:50:43;3.60;99.90
15364;DHT22;7781;49.690;6.472;2022-12-08T13:53:37;3.60;99.90
15364;DHT22;7781;49.690;6.472;2022-12-08T13:56:38;3.60;99.90
15364;DHT22;7781;49.690;6.472;2022-12-08T13:59:31;3.60;99.90
15364;DHT22;7781;49.690;6.472;2022-12-08T14:02:04;3.60;99.90
15364;DHT22;7781;49.690;6.472;2022-12-08T14:04:43;3.60;99.90
15364;DHT22;7781;49.690;6.472;2022-12-08T14:07:33;3.60;99.90
15364;DHT22;7781;49.690;6.472;2022-12-08T14:10:06;3.60;99.90
15364;DHT22;7781;49.690;6.472;2022-12-08T14:12:36;3.50;99.90
15364;DHT22;7781;49.690;6.472;2022-12-08T14:15:06;3.40;99.90
15364;DHT22;7781;49.690;6.472;2022-12-08T14:17:38;3.30;99.90
15364;DHT22;7781;49.690;6.472;2022-12-08T14:20:19;3.30;99.90
15364;DHT22;7781;49.690;6.472;2022-12-08T14:22:51;3.20;99.90
15364;DHT22;7781;49.690;6.472;2022-12-08T14:25:21;3.20;99.90
15364;DHT22;7781;49.690;6.472;2022-12-08T14:27:55;3.20;99.90
15364;DHT22;7781;49.690;6.472;2022-12-08T14:30:29;3.10;99.90
15364;DHT22;7781;49.690;6.472;2022-12-08T14:33:00;3.10;99.90
15364;DHT22;7781;49.690;6.472;2022-12-08T14:35:32;3.10;99.90
15364;DHT22;7781;49.690;6.472;2022-12-08T14:38:05;3.10;99.90
15364;DHT22;7781;49.690;6.472;2022-12-08T14:40:38;3.10;99.90
15364;DHT22;7781;49.690;6.472;2022-12-08T14:43:15;3.10;99.90
15364;DHT22;7781;49.690;6.472;2022-12-08T14:45:49;3.10;99.90
15364;DHT22;7781;49.690;6.472;2022-12-08T14:48:39;3.20;99.90
15364;DHT22;7781;49.690;6.472;2022-12-08T14:51:18;3.20;99.90
15364;DHT22;7781;49.690;6.472;2022-12-08T14:53:53;3.20;99.90
15364;DHT22;7781;49.690;6.472;2022-12-08T14:56:29;3.20;99.90
15364;DHT22;7781;49.690;6.472;2022-12-08T14:59:05;3.20;99.90
15364;DHT22;7781;49.690;6.472;2022-12-08T15:01:35;3.20;99.90
15364;DHT22;7781;49.690;6.472;2022-12-08T15:04:08;3.20;99.90
15364;DHT22;7781;49.690;6.472;2022-12-08T15:06:49;3.10;99.90
15364;DHT22;7781;49.690;6.472;2022-12-08T15:09:30;3.10;99.90
15364;DHT22;7781;49.690;6.472;2022-12-08T15:12:03;3.00;99.90
15364;DHT22;7781;49.690;6.472;2022-12-08T15:14:33;3.00;99.90
15364;DHT22;7781;49.690;6.472;2022-12-08T15:17:27;3.00;99.90
15364;DHT22;7781;49.690;6.472;2022-12-08T15:19:59;3.10;99.90
15364;DHT22;7781;49.690;6.472;2022-12-08T15:22:32;3.10;99.90
15364;DHT22;7781;49.690;6.472;2022-12-08T15:25:01;3.10;99.90
15364;DHT22;7781;49.690;6.472;2022-12-08T15:27:30;3.10;99.90
15364;DHT22;7781;49.690;6.472;2022-12-08T15:30:15;3.10;99.90
15364;DHT22;7781;49.690;6.472;2022-12-08T15:32:44;3.10;99.90
15364;DHT22;7781;49.690;6.472;2022-12-08T15:35:16;3.10;99.90
15364;DHT22;7781;49.690;6.472;2022-12-08T15:37:46;3.20;99.90
15364;DHT22;7781;49.690;6.472;2022-12-08T15:40:17;3.20;99.90
15364;DHT22;7781;49.690;6.472;2022-12-08T15:42:48;3.20;99.90
15364;DHT22;7781;49.690;6.472;2022-12-08T15:45:16;3.30;99.90
15364;DHT22;7781;49.690;6.472;2022-12-08T15:47:45;3.30;99.90
15364;DHT22;7781;49.690;6.472;2022-12-08T15:50:16;3.30;99.90
15364;DHT22;7781;49.690;6.472;2022-12-08T15:52:49;3.20;99.90
15364;DHT22;7781;49.690;6.472;2022-12-08T15:55:19;3.20;99.90
15364;DHT22;7781;49.690;6.472;2022-12-08T15:57:53;3.20;99.90
15364;DHT22;7781;49.690;6.472;2022-12-08T16:00:45;3.20;99.90
15364;DHT22;7781;49.690;6.472;2022-12-08T16:03:22;3.20;99.90
15364;DHT22;7781;49.690;6.472;2022-12-08T16:06:16;3.20;99.90
15364;DHT22;7781;49.690;6.472;2022-12-08T16:09:14;3.20;99.90
15364;DHT22;7781;49.690;6.472;2022-12-08T16:11:44;3.20;99.90
15364;DHT22;7781;49.690;6.472;2022-12-08T16:14:34;3.20;99.90
15364;DHT22;7781;49.690;6.472;2022-12-08T16:17:26;3.20;99.90
15364;DHT22;7781;49.690;6.472;2022-12-08T16:19:55;3.20;99.90
15364;DHT22;7781;49.690;6.472;2022-12-08T16:22:26;3.20;99.90
15364;DHT22;7781;49.690;6.472;2022-12-08T16:25:22;3.20;99.90
15364;DHT22;7781;49.690;6.472;2022-12-08T16:27:52;3.30;99.90
15364;DHT22;7781;49.690;6.472;2022-12-08T16:30:41;3.30;99.90
15364;DHT22;7781;49.690;6.472;2022-12-08T16:33:12;3.20;99.90
15364;DHT22;7781;49.690;6.472;2022-12-08T16:35:43;3.20;99.90
15364;DHT22;7781;49.690;6.472;2022-12-08T16:38:13;3.20;99.90
15364;DHT22;7781;49.690;6.472;2022-12-08T16:40:46;3.10;99.90
15364;DHT22;7781;49.690;6.472;2022-12-08T16:43:34;3.10;99.90
15364;DHT22;7781;49.690;6.472;2022-12-08T16:46:03;3.10;99.90
15364;DHT22;7781;49.690;6.472;2022-12-08T16:48:32;3.10;99.90
15364;DHT22;7781;49.690;6.472;2022-12-08T16:51:01;3.10;99.90
15364;DHT22;7781;49.690;6.472;2022-12-08T16:53:36;3.10;99.90
15364;DHT22;7781;49.690;6.472;2022-12-08T16:56:07;3.10;99.90
15364;DHT22;7781;49.690;6.472;2022-12-08T16:58:35;3.10;99.90
15364;DHT22;7781;49.690;6.472;2022-12-08T17:01:09;2.90;99.90
15364;DHT22;7781;49.690;6.472;2022-12-08T17:03:38;2.80;99.90
15364;DHT22;7781;49.690;6.472;2022-12-08T17:06:08;2.80;99.90
15364;DHT22;7781;49.690;6.472;2022-12-08T17:08:39;2.70;99.90
15364;DHT22;7781;49.690;6.472;2022-12-08T17:11:19;2.70;99.90
15364;DHT22;7781;49.690;6.472;2022-12-08T17:13:48;2.70;99.90
15364;DHT22;7781;49.690;6.472;2022-12-08T17:16:19;2.70;99.90
15364;DHT22;7781;49.690;6.472;2022-12-08T17:18:53;2.60;99.90
15364;DHT22;7781;49.690;6.472;2022-12-08T17:21:22;2.50;99.90
15364;DHT22;7781;49.690;6.472;2022-12-08T17:23:52;2.50;99.90
15364;DHT22;7781;49.690;6.472;2022-12-08T17:26:22;2.40;99.90
15364;DHT22;7781;49.690;6.472;2022-12-08T17:28:52;2.40;99.90
15364;DHT22;7781;49.690;6.472;2022-12-08T17:31:29;2.40;99.90
15364;DHT22;7781;49.690;6.472;2022-12-08T17:33:59;2.40;99.90
15364;DHT22;7781;49.690;6.472;2022-12-08T17:36:29;2.30;99.90
15364;DHT22;7781;49.690;6.472;2022-12-08T17:38:58;2.30;99.90
15364;DHT22;7781;49.690;6.472;2022-12-08T17:41:30;2.40;99.90
15364;DHT22;7781;49.690;6.472;2022-12-08T17:43:58;2.40;99.90
15364;DHT22;7781;49.690;6.472;2022-12-08T17:46:31;2.40;99.90
15364;DHT22;7781;49.690;6.472;2022-12-08T17:49:09;2.30;99.90
15364;DHT22;7781;49.690;6.472;2022-12-08T17:51:38;2.20;99.90
15364;DHT22;7781;49.690;6.472;2022-12-08T17:54:07;2.10;99.90
15364;DHT22;7781;49.690;6.472;2022-12-08T17:56:41;2.00;99.90
15364;DHT22;7781;49.690;6.472;2022-12-08T17:59:10;1.90;99.90
15364;DHT22;7781;49.690;6.472;2022-12-08T18:01:40;1.90;99.90
15364;DHT22;7781;49.690;6.472;2022-12-08T18:04:12;1.90;99.90
15364;DHT22;7781;49.690;6.472;2022-12-08T18:06:40;1.80;99.90
15364;DHT22;7781;49.690;6.472;2022-12-08T18:09:13;1.80;99.90